sensor_id;sensor_type;location;lat;lon;timestamp;P1;durP1;ratioP1;P2;durP2;ratioP2
22060;SDS011;11194;48.092;-1.382;2023-04-07T00:01:13;12.88;;;12.18;;
22060;SDS011;11194;48.092;-1.382;2023-04-07T00:03:40;11.90;;;10.98;;
22060;SDS011;11194;48.092;-1.382;2023-04-07T00:06:06;20.23;;;18.27;;
22060;SDS011;11194;48.092;-1.382;2023-04-07T00:08:32;20.38;;;18.33;;
22060;SDS011;11194;48.092;-1.382;2023-04-07T00:10:58;19.42;;;17.55;;
22060;SDS011;11194;48.092;-1.382;2023-04-07T00:13:24;17.55;;;14.95;;
22060;SDS011;11194;48.092;-1.382;2023-04-07T00:15:51;16.80;;;15.50;;
22060;SDS011;11194;48.092;-1.382;2023-04-07T00:18:17;14.18;;;12.95;;
22060;SDS011;11194;48.092;-1.382;2023-04-07T00:20:43;15.18;;;13.23;;
22060;SDS011;11194;48.092;-1.382;2023-04-07T00:23:09;15.80;;;12.02;;
22060;SDS011;11194;48.092;-1.382;2023-04-07T00:25:35;13.50;;;12.07;;
22060;SDS011;11194;48.092;-1.382;2023-04-07T00:28:01;14.32;;;12.93;;
22060;SDS011;11194;48.092;-1.382;2023-04-07T00:30:27;13.68;;;10.98;;
22060;SDS011;11194;48.092;-1.382;2023-04-07T00:32:53;11.63;;;10.57;;
22060;SDS011;11194;48.092;-1.382;2023-04-07T00:35:19;12.13;;;10.48;;
22060;SDS011;11194;48.092;-1.382;2023-04-07T00:37:45;14.13;;;10.07;;
22060;SDS011;11194;48.092;-1.382;2023-04-07T00:40:11;16.13;;;8.00;;
22060;SDS011;11194;48.092;-1.382;2023-04-07T00:42:37;14.95;;;8.52;;
22060;SDS011;11194;48.092;-1.382;2023-04-07T00:45:04;10.55;;;8.73;;
22060;SDS011;11194;48.092;-1.382;2023-04-07T00:47:30;13.18;;;7.70;;
22060;SDS011;11194;48.092;-1.382;2023-04-07T00:49:56;11.30;;;5.88;;
22060;SDS011;11194;48.092;-1.382;2023-04-07T00:52:23;10.63;;;6.65;;
22060;SDS011;11194;48.092;-1.382;2023-04-07T00:54:53;9.35;;;6.57;;
22060;SDS011;11194;48.092;-1.382;2023-04-07T00:57:20;18.42;;;7.47;;
22060;SDS011;11194;48.092;-1.382;2023-04-07T00:59:47;10.38;;;6.90;;
22060;SDS011;11194;48.092;-1.382;2023-04-07T01:02:15;8.90;;;6.57;;
22060;SDS011;11194;48.092;-1.382;2023-04-07T01:07:28;11.75;;;5.95;;
22060;SDS011;11194;48.092;-1.382;2023-04-07T01:09:59;7.60;;;5.45;;
22060;SDS011;11194;48.092;-1.382;2023-04-07T01:14:57;16.35;;;6.97;;
22060;SDS011;11194;48.092;-1.382;2023-04-07T01:17:24;14.63;;;6.00;;
22060;SDS011;11194;48.092;-1.382;2023-04-07T01:19:58;12.35;;;6.05;;
22060;SDS011;11194;48.092;-1.382;2023-04-07T01:22:40;13.23;;;6.95;;
22060;SDS011;11194;48.092;-1.382;2023-04-07T01:25:21;8.73;;;6.40;;
22060;SDS011;11194;48.092;-1.382;2023-04-07T01:27:52;13.82;;;6.72;;
22060;SDS011;11194;48.092;-1.382;2023-04-07T04:02:02;35.80;;;10.65;;
22060;SDS011;11194;48.092;-1.382;2023-04-07T04:04:28;38.53;;;11.05;;
22060;SDS011;11194;48.092;-1.382;2023-04-07T04:06:54;70.13;;;13.25;;
22060;SDS011;11194;48.092;-1.382;2023-04-07T04:09:20;29.52;;;10.38;;
22060;SDS011;11194;48.092;-1.382;2023-04-07T04:11:46;21.90;;;10.00;;
22060;SDS011;11194;48.092;-1.382;2023-04-07T04:14:12;58.10;;;11.63;;
22060;SDS011;11194;48.092;-1.382;2023-04-07T04:16:38;80.90;;;15.32;;
22060;SDS011;11194;48.092;-1.382;2023-04-07T04:19:04;16.98;;;8.70;;
22060;SDS011;11194;48.092;-1.382;2023-04-07T04:21:30;20.23;;;8.88;;
22060;SDS011;11194;48.092;-1.382;2023-04-07T04:23:56;19.23;;;9.05;;
22060;SDS011;11194;48.092;-1.382;2023-04-07T04:26:22;16.42;;;8.10;;
22060;SDS011;11194;48.092;-1.382;2023-04-07T04:28:50;16.13;;;7.63;;
22060;SDS011;11194;48.092;-1.382;2023-04-07T04:31:16;41.03;;;8.60;;
22060;SDS011;11194;48.092;-1.382;2023-04-07T04:33:43;33.85;;;8.02;;
22060;SDS011;11194;48.092;-1.382;2023-04-07T04:36:09;20.00;;;7.47;;
22060;SDS011;11194;48.092;-1.382;2023-04-07T04:38:35;27.95;;;8.30;;
22060;SDS011;11194;48.092;-1.382;2023-04-07T04:41:01;40.05;;;13.35;;
22060;SDS011;11194;48.092;-1.382;2023-04-07T04:43:27;19.92;;;9.50;;
22060;SDS011;11194;48.092;-1.382;2023-04-07T04:45:53;18.23;;;8.55;;
22060;SDS011;11194;48.092;-1.382;2023-04-07T04:48:20;23.30;;;7.75;;
22060;SDS011;11194;48.092;-1.382;2023-04-07T04:50:46;20.35;;;7.93;;
22060;SDS011;11194;48.092;-1.382;2023-04-07T04:53:12;11.80;;;7.82;;
22060;SDS011;11194;48.092;-1.382;2023-04-07T04:55:38;28.33;;;7.82;;
22060;SDS011;11194;48.092;-1.382;2023-04-07T04:58:05;15.23;;;9.32;;
22060;SDS011;11194;48.092;-1.382;2023-04-07T05:00:31;15.15;;;8.32;;
22060;SDS011;11194;48.092;-1.382;2023-04-07T05:02:57;45.05;;;7.15;;
22060;SDS011;11194;48.092;-1.382;2023-04-07T05:05:23;15.23;;;6.90;;
22060;SDS011;11194;48.092;-1.382;2023-04-07T05:07:49;18.65;;;7.40;;
22060;SDS011;11194;48.092;-1.382;2023-04-07T05:10:15;22.33;;;6.53;;
22060;SDS011;11194;48.092;-1.382;2023-04-07T05:12:41;20.05;;;7.22;;
22060;SDS011;11194;48.092;-1.382;2023-04-07T05:15:07;39.05;;;11.82;;
22060;SDS011;11194;48.092;-1.382;2023-04-07T05:17:33;27.25;;;10.70;;
22060;SDS011;11194;48.092;-1.382;2023-04-07T05:19:59;30.70;;;11.70;;
22060;SDS011;11194;48.092;-1.382;2023-04-07T05:22:25;35.20;;;11.70;;
22060;SDS011;11194;48.092;-1.382;2023-04-07T05:24:51;34.60;;;11.88;;
22060;SDS011;11194;48.092;-1.382;2023-04-07T05:27:17;29.77;;;11.73;;
22060;SDS011;11194;48.092;-1.382;2023-04-07T05:29:43;20.98;;;11.05;;
22060;SDS011;11194;48.092;-1.382;2023-04-07T05:32:09;24.98;;;12.55;;
22060;SDS011;11194;48.092;-1.382;2023-04-07T05:34:35;26.92;;;11.80;;
22060;SDS011;11194;48.092;-1.382;2023-04-07T05:37:01;24.10;;;11.93;;
22060;SDS011;11194;48.092;-1.382;2023-04-07T05:39:27;26.40;;;11.93;;
22060;SDS011;11194;48.092;-1.382;2023-04-07T05:41:53;28.80;;;13.20;;
22060;SDS011;11194;48.092;-1.382;2023-04-07T05:44:21;17.48;;;10.30;;
22060;SDS011;11194;48.092;-1.382;2023-04-07T05:46:47;38.78;;;13.38;;
22060;SDS011;11194;48.092;-1.382;2023-04-07T05:49:13;25.92;;;11.98;;
22060;SDS011;11194;48.092;-1.382;2023-04-07T05:51:39;26.00;;;10.63;;
22060;SDS011;11194;48.092;-1.382;2023-04-07T05:54:05;24.65;;;12.65;;
22060;SDS011;11194;48.092;-1.382;2023-04-07T05:56:31;34.35;;;17.42;;
22060;SDS011;11194;48.092;-1.382;2023-04-07T05:58:57;45.55;;;16.52;;
22060;SDS011;11194;48.092;-1.382;2023-04-07T06:01:24;30.85;;;15.32;;
22060;SDS011;11194;48.092;-1.382;2023-04-07T06:03:51;28.80;;;15.55;;
22060;SDS011;11194;48.092;-1.382;2023-04-07T06:06:17;18.42;;;12.50;;
22060;SDS011;11194;48.092;-1.382;2023-04-07T06:08:43;17.50;;;12.55;;
22060;SDS011;11194;48.092;-1.382;2023-04-07T06:11:10;14.35;;;12.43;;
22060;SDS011;11194;48.092;-1.382;2023-04-07T06:13:36;20.25;;;11.95;;
22060;SDS011;11194;48.092;-1.382;2023-04-07T06:16:02;37.75;;;14.05;;
22060;SDS011;11194;48.092;-1.382;2023-04-07T06:18:28;22.98;;;11.88;;
22060;SDS011;11194;48.092;-1.382;2023-04-07T06:20:54;19.60;;;10.88;;
22060;SDS011;11194;48.092;-1.382;2023-04-07T06:23:21;42.10;;;13.57;;
22060;SDS011;11194;48.092;-1.382;2023-04-07T06:25:47;13.23;;;11.98;;
22060;SDS011;11194;48.092;-1.382;2023-04-07T06:28:17;14.82;;;12.43;;
22060;SDS011;11194;48.092;-1.382;2023-04-07T06:30:43;15.45;;;13.95;;
22060;SDS011;11194;48.092;-1.382;2023-04-07T06:33:09;15.02;;;13.27;;
22060;SDS011;11194;48.092;-1.382;2023-04-07T06:35:35;19.08;;;13.77;;
22060;SDS011;11194;48.092;-1.382;2023-04-07T06:38:02;26.08;;;14.20;;
22060;SDS011;11194;48.092;-1.382;2023-04-07T06:40:28;22.80;;;14.50;;
22060;SDS011;11194;48.092;-1.382;2023-04-07T06:42:54;13.38;;;11.48;;
22060;SDS011;11194;48.092;-1.382;2023-04-07T06:45:20;13.93;;;12.20;;
22060;SDS011;11194;48.092;-1.382;2023-04-07T06:47:46;14.93;;;13.20;;
22060;SDS011;11194;48.092;-1.382;2023-04-07T06:50:12;44.35;;;13.75;;
22060;SDS011;11194;48.092;-1.382;2023-04-07T06:52:38;50.88;;;13.73;;
22060;SDS011;11194;48.092;-1.382;2023-04-07T06:55:05;17.92;;;15.35;;
22060;SDS011;11194;48.092;-1.382;2023-04-07T06:57:32;45.25;;;14.32;;
22060;SDS011;11194;48.092;-1.382;2023-04-07T06:59:58;51.25;;;16.85;;
22060;SDS011;11194;48.092;-1.382;2023-04-07T07:02:24;84.28;;;18.58;;
22060;SDS011;11194;48.092;-1.382;2023-04-07T07:04:50;79.07;;;16.52;;
22060;SDS011;11194;48.092;-1.382;2023-04-07T07:07:16;99.72;;;17.15;;
22060;SDS011;11194;48.092;-1.382;2023-04-07T07:09:42;58.33;;;14.45;;
22060;SDS011;11194;48.092;-1.382;2023-04-07T07:12:08;55.35;;;17.40;;
22060;SDS011;11194;48.092;-1.382;2023-04-07T07:14:34;36.22;;;14.52;;
22060;SDS011;11194;48.092;-1.382;2023-04-07T07:17:00;32.70;;;15.75;;
22060;SDS011;11194;48.092;-1.382;2023-04-07T07:19:26;47.80;;;17.08;;
22060;SDS011;11194;48.092;-1.382;2023-04-07T07:21:52;18.98;;;17.05;;
22060;SDS011;11194;48.092;-1.382;2023-04-07T07:24:19;32.17;;;19.15;;
22060;SDS011;11194;48.092;-1.382;2023-04-07T07:26:45;32.35;;;19.40;;
22060;SDS011;11194;48.092;-1.382;2023-04-07T07:29:12;32.80;;;15.50;;
22060;SDS011;11194;48.092;-1.382;2023-04-07T07:31:38;28.30;;;15.18;;
22060;SDS011;11194;48.092;-1.382;2023-04-07T07:34:05;23.15;;;15.05;;
22060;SDS011;11194;48.092;-1.382;2023-04-07T07:36:31;37.53;;;15.35;;
22060;SDS011;11194;48.092;-1.382;2023-04-07T07:38:57;33.65;;;15.77;;
22060;SDS011;11194;48.092;-1.382;2023-04-07T07:41:23;20.80;;;18.05;;
22060;SDS011;11194;48.092;-1.382;2023-04-07T07:43:50;22.08;;;20.10;;
22060;SDS011;11194;48.092;-1.382;2023-04-07T07:46:16;35.33;;;19.23;;
22060;SDS011;11194;48.092;-1.382;2023-04-07T07:48:42;22.92;;;15.75;;
22060;SDS011;11194;48.092;-1.382;2023-04-07T07:51:10;17.42;;;15.20;;
22060;SDS011;11194;48.092;-1.382;2023-04-07T07:53:36;24.55;;;14.38;;
22060;SDS011;11194;48.092;-1.382;2023-04-07T07:56:11;18.30;;;14.20;;
22060;SDS011;11194;48.092;-1.382;2023-04-07T07:58:38;19.40;;;12.45;;
22060;SDS011;11194;48.092;-1.382;2023-04-07T08:01:04;29.75;;;14.15;;
22060;SDS011;11194;48.092;-1.382;2023-04-07T08:03:30;30.75;;;13.20;;
22060;SDS011;11194;48.092;-1.382;2023-04-07T08:05:56;30.58;;;11.93;;
22060;SDS011;11194;48.092;-1.382;2023-04-07T08:08:22;15.23;;;12.00;;
22060;SDS011;11194;48.092;-1.382;2023-04-07T08:10:48;18.38;;;13.02;;
22060;SDS011;11194;48.092;-1.382;2023-04-07T08:13:14;20.05;;;15.50;;
22060;SDS011;11194;48.092;-1.382;2023-04-07T08:15:40;25.73;;;14.23;;
22060;SDS011;11194;48.092;-1.382;2023-04-07T08:18:06;20.70;;;14.98;;
22060;SDS011;11194;48.092;-1.382;2023-04-07T08:20:32;17.85;;;15.10;;
22060;SDS011;11194;48.092;-1.382;2023-04-07T08:22:58;19.63;;;14.48;;
22060;SDS011;11194;48.092;-1.382;2023-04-07T08:25:26;10.55;;;7.80;;
22060;SDS011;11194;48.092;-1.382;2023-04-07T08:27:52;13.88;;;7.22;;
22060;SDS011;11194;48.092;-1.382;2023-04-07T08:30:18;12.82;;;8.30;;
22060;SDS011;11194;48.092;-1.382;2023-04-07T08:32:46;13.05;;;8.10;;
22060;SDS011;11194;48.092;-1.382;2023-04-07T08:35:12;13.60;;;8.77;;
22060;SDS011;11194;48.092;-1.382;2023-04-07T08:37:38;17.42;;;8.88;;
22060;SDS011;11194;48.092;-1.382;2023-04-07T08:40:05;12.88;;;7.47;;
22060;SDS011;11194;48.092;-1.382;2023-04-07T08:42:32;15.05;;;8.90;;
22060;SDS011;11194;48.092;-1.382;2023-04-07T08:45:05;13.18;;;9.18;;
22060;SDS011;11194;48.092;-1.382;2023-04-07T08:47:31;9.35;;;6.22;;
22060;SDS011;11194;48.092;-1.382;2023-04-07T08:50:07;9.15;;;5.00;;
22060;SDS011;11194;48.092;-1.382;2023-04-07T08:52:38;8.02;;;5.90;;
22060;SDS011;11194;48.092;-1.382;2023-04-07T08:55:05;8.45;;;5.45;;
22060;SDS011;11194;48.092;-1.382;2023-04-07T08:57:32;8.52;;;5.78;;
22060;SDS011;11194;48.092;-1.382;2023-04-07T08:59:59;9.00;;;5.35;;
22060;SDS011;11194;48.092;-1.382;2023-04-07T09:02:32;9.20;;;5.68;;
22060;SDS011;11194;48.092;-1.382;2023-04-07T09:04:58;7.25;;;5.53;;
22060;SDS011;11194;48.092;-1.382;2023-04-07T09:07:25;9.98;;;5.63;;
22060;SDS011;11194;48.092;-1.382;2023-04-07T09:09:53;8.45;;;5.07;;
22060;SDS011;11194;48.092;-1.382;2023-04-07T09:12:22;8.65;;;5.88;;
22060;SDS011;11194;48.092;-1.382;2023-04-07T09:14:48;8.07;;;5.93;;
22060;SDS011;11194;48.092;-1.382;2023-04-07T09:17:14;7.88;;;5.68;;
22060;SDS011;11194;48.092;-1.382;2023-04-07T09:19:51;7.40;;;5.13;;
22060;SDS011;11194;48.092;-1.382;2023-04-07T09:22:33;9.23;;;5.57;;
22060;SDS011;11194;48.092;-1.382;2023-04-07T09:25:12;8.50;;;5.55;;
22060;SDS011;11194;48.092;-1.382;2023-04-07T09:27:39;10.65;;;5.70;;
22060;SDS011;11194;48.092;-1.382;2023-04-07T09:30:12;9.40;;;5.60;;
22060;SDS011;11194;48.092;-1.382;2023-04-07T09:32:39;8.23;;;5.50;;
22060;SDS011;11194;48.092;-1.382;2023-04-07T09:35:06;8.50;;;5.47;;
22060;SDS011;11194;48.092;-1.382;2023-04-07T09:40:40;5.85;;;4.28;;
22060;SDS011;11194;48.092;-1.382;2023-04-07T09:46:06;6.97;;;4.53;;
22060;SDS011;11194;48.092;-1.382;2023-04-07T09:48:35;7.50;;;4.75;;
22060;SDS011;11194;48.092;-1.382;2023-04-07T09:51:12;7.13;;;4.53;;
22060;SDS011;11194;48.092;-1.382;2023-04-07T09:53:42;7.28;;;4.60;;
22060;SDS011;11194;48.092;-1.382;2023-04-07T09:56:30;8.73;;;5.10;;
22060;SDS011;11194;48.092;-1.382;2023-04-07T09:59:16;6.55;;;4.55;;
22060;SDS011;11194;48.092;-1.382;2023-04-07T10:01:42;7.15;;;4.57;;
22060;SDS011;11194;48.092;-1.382;2023-04-07T10:04:08;7.10;;;4.47;;
22060;SDS011;11194;48.092;-1.382;2023-04-07T10:06:35;7.25;;;4.57;;
22060;SDS011;11194;48.092;-1.382;2023-04-07T10:09:01;6.05;;;4.53;;
22060;SDS011;11194;48.092;-1.382;2023-04-07T10:11:27;7.03;;;4.63;;
22060;SDS011;11194;48.092;-1.382;2023-04-07T10:13:55;7.40;;;4.47;;
22060;SDS011;11194;48.092;-1.382;2023-04-07T10:16:24;6.65;;;4.40;;
22060;SDS011;11194;48.092;-1.382;2023-04-07T10:18:51;8.15;;;4.95;;
22060;SDS011;11194;48.092;-1.382;2023-04-07T10:21:19;8.07;;;4.70;;
22060;SDS011;11194;48.092;-1.382;2023-04-07T10:26:32;8.30;;;4.57;;
22060;SDS011;11194;48.092;-1.382;2023-04-07T10:29:01;7.82;;;4.85;;
22060;SDS011;11194;48.092;-1.382;2023-04-07T10:31:29;6.90;;;4.78;;
22060;SDS011;11194;48.092;-1.382;2023-04-07T10:33:55;8.07;;;4.93;;
22060;SDS011;11194;48.092;-1.382;2023-04-07T10:36:21;5.10;;;3.80;;
22060;SDS011;11194;48.092;-1.382;2023-04-07T10:44:01;4.57;;;2.13;;
22060;SDS011;11194;48.092;-1.382;2023-04-07T10:49:16;4.18;;;2.17;;
22060;SDS011;11194;48.092;-1.382;2023-04-07T10:51:42;2.50;;;1.20;;
22060;SDS011;11194;48.092;-1.382;2023-04-07T10:54:21;2.53;;;1.20;;
22060;SDS011;11194;48.092;-1.382;2023-04-07T10:57:07;3.08;;;1.77;;
22060;SDS011;11194;48.092;-1.382;2023-04-07T10:59:35;3.05;;;1.70;;
22060;SDS011;11194;48.092;-1.382;2023-04-07T11:04:44;4.10;;;1.60;;
22060;SDS011;11194;48.092;-1.382;2023-04-07T11:07:12;3.13;;;2.00;;
22060;SDS011;11194;48.092;-1.382;2023-04-07T11:09:39;2.78;;;1.80;;
22060;SDS011;11194;48.092;-1.382;2023-04-07T11:12:05;2.42;;;1.52;;
22060;SDS011;11194;48.092;-1.382;2023-04-07T11:14:32;3.25;;;1.40;;
22060;SDS011;11194;48.092;-1.382;2023-04-07T11:16:58;3.33;;;1.50;;
22060;SDS011;11194;48.092;-1.382;2023-04-07T11:19:28;2.40;;;1.70;;
22060;SDS011;11194;48.092;-1.382;2023-04-07T11:22:14;2.28;;;1.70;;
22060;SDS011;11194;48.092;-1.382;2023-04-07T11:24:40;3.25;;;2.30;;
22060;SDS011;11194;48.092;-1.382;2023-04-07T11:27:13;2.40;;;1.70;;
22060;SDS011;11194;48.092;-1.382;2023-04-07T11:29:39;3.78;;;1.45;;
22060;SDS011;11194;48.092;-1.382;2023-04-07T11:32:05;3.35;;;1.60;;
22060;SDS011;11194;48.092;-1.382;2023-04-07T11:34:31;3.38;;;1.95;;
22060;SDS011;11194;48.092;-1.382;2023-04-07T11:37:17;2.45;;;1.52;;
22060;SDS011;11194;48.092;-1.382;2023-04-07T11:39:43;3.05;;;1.92;;
22060;SDS011;11194;48.092;-1.382;2023-04-07T11:42:11;4.05;;;1.80;;
22060;SDS011;11194;48.092;-1.382;2023-04-07T11:44:46;3.05;;;1.92;;
22060;SDS011;11194;48.092;-1.382;2023-04-07T11:47:12;3.67;;;1.90;;
22060;SDS011;11194;48.092;-1.382;2023-04-07T11:49:45;2.58;;;1.80;;
22060;SDS011;11194;48.092;-1.382;2023-04-07T11:52:12;3.90;;;2.22;;
22060;SDS011;11194;48.092;-1.382;2023-04-07T11:54:41;2.95;;;2.17;;
22060;SDS011;11194;48.092;-1.382;2023-04-07T11:57:07;3.97;;;2.60;;
22060;SDS011;11194;48.092;-1.382;2023-04-07T11:59:37;8.18;;;2.50;;
22060;SDS011;11194;48.092;-1.382;2023-04-07T12:02:03;5.95;;;2.88;;
22060;SDS011;11194;48.092;-1.382;2023-04-07T12:04:30;4.20;;;2.72;;
22060;SDS011;11194;48.092;-1.382;2023-04-07T12:07:05;3.85;;;2.30;;
22060;SDS011;11194;48.092;-1.382;2023-04-07T12:09:32;5.10;;;2.63;;
22060;SDS011;11194;48.092;-1.382;2023-04-07T12:12:03;4.55;;;2.80;;
22060;SDS011;11194;48.092;-1.382;2023-04-07T12:14:34;3.45;;;2.15;;
22060;SDS011;11194;48.092;-1.382;2023-04-07T12:17:00;4.35;;;2.25;;
22060;SDS011;11194;48.092;-1.382;2023-04-07T12:19:28;4.45;;;3.00;;
22060;SDS011;11194;48.092;-1.382;2023-04-07T12:21:54;6.25;;;2.40;;
22060;SDS011;11194;48.092;-1.382;2023-04-07T12:24:20;5.80;;;2.60;;
22060;SDS011;11194;48.092;-1.382;2023-04-07T12:26:47;6.70;;;2.67;;
22060;SDS011;11194;48.092;-1.382;2023-04-07T12:29:13;7.28;;;2.45;;
22060;SDS011;11194;48.092;-1.382;2023-04-07T12:31:40;4.00;;;2.88;;
22060;SDS011;11194;48.092;-1.382;2023-04-07T12:34:06;4.90;;;2.70;;
22060;SDS011;11194;48.092;-1.382;2023-04-07T12:36:32;4.85;;;2.70;;
22060;SDS011;11194;48.092;-1.382;2023-04-07T12:38:59;5.53;;;2.60;;
22060;SDS011;11194;48.092;-1.382;2023-04-07T12:41:25;3.92;;;2.70;;
22060;SDS011;11194;48.092;-1.382;2023-04-07T12:43:51;4.50;;;2.85;;
22060;SDS011;11194;48.092;-1.382;2023-04-07T12:46:18;8.88;;;2.42;;
22060;SDS011;11194;48.092;-1.382;2023-04-07T12:48:45;3.40;;;2.15;;
22060;SDS011;11194;48.092;-1.382;2023-04-07T12:51:12;6.00;;;2.30;;
22060;SDS011;11194;48.092;-1.382;2023-04-07T12:53:38;5.35;;;2.42;;
22060;SDS011;11194;48.092;-1.382;2023-04-07T12:56:04;2.75;;;2.33;;
22060;SDS011;11194;48.092;-1.382;2023-04-07T12:58:31;4.22;;;2.70;;
22060;SDS011;11194;48.092;-1.382;2023-04-07T13:00:57;3.53;;;2.33;;
22060;SDS011;11194;48.092;-1.382;2023-04-07T13:03:24;4.68;;;2.50;;
22060;SDS011;11194;48.092;-1.382;2023-04-07T13:05:50;3.15;;;2.10;;
22060;SDS011;11194;48.092;-1.382;2023-04-07T13:08:19;4.20;;;2.20;;
22060;SDS011;11194;48.092;-1.382;2023-04-07T13:10:45;3.75;;;2.50;;
22060;SDS011;11194;48.092;-1.382;2023-04-07T13:13:11;3.70;;;1.92;;
22060;SDS011;11194;48.092;-1.382;2023-04-07T13:15:37;4.30;;;2.10;;
22060;SDS011;11194;48.092;-1.382;2023-04-07T13:18:03;4.00;;;2.17;;
22060;SDS011;11194;48.092;-1.382;2023-04-07T13:20:30;4.97;;;2.03;;
22060;SDS011;11194;48.092;-1.382;2023-04-07T13:22:56;4.05;;;2.00;;
22060;SDS011;11194;48.092;-1.382;2023-04-07T13:25:22;3.40;;;2.17;;
22060;SDS011;11194;48.092;-1.382;2023-04-07T13:27:49;4.97;;;2.40;;
22060;SDS011;11194;48.092;-1.382;2023-04-07T13:30:17;3.10;;;2.13;;
22060;SDS011;11194;48.092;-1.382;2023-04-07T13:32:43;4.10;;;2.22;;
22060;SDS011;11194;48.092;-1.382;2023-04-07T13:35:14;4.13;;;2.00;;
22060;SDS011;11194;48.092;-1.382;2023-04-07T13:37:40;2.88;;;1.77;;
22060;SDS011;11194;48.092;-1.382;2023-04-07T13:40:06;4.35;;;2.30;;
22060;SDS011;11194;48.092;-1.382;2023-04-07T13:42:33;3.38;;;1.70;;
22060;SDS011;11194;48.092;-1.382;2023-04-07T13:45:02;4.32;;;1.80;;
22060;SDS011;11194;48.092;-1.382;2023-04-07T13:47:28;3.05;;;2.03;;
22060;SDS011;11194;48.092;-1.382;2023-04-07T13:49:58;2.88;;;1.90;;
22060;SDS011;11194;48.092;-1.382;2023-04-07T13:52:24;4.25;;;2.03;;
22060;SDS011;11194;48.092;-1.382;2023-04-07T13:54:51;5.90;;;2.40;;
22060;SDS011;11194;48.092;-1.382;2023-04-07T13:57:18;4.22;;;2.40;;
22060;SDS011;11194;48.092;-1.382;2023-04-07T13:59:48;4.55;;;2.42;;
22060;SDS011;11194;48.092;-1.382;2023-04-07T14:02:18;5.15;;;2.22;;
22060;SDS011;11194;48.092;-1.382;2023-04-07T14:04:44;3.78;;;2.20;;
22060;SDS011;11194;48.092;-1.382;2023-04-07T14:07:10;3.45;;;2.10;;
22060;SDS011;11194;48.092;-1.382;2023-04-07T14:09:36;4.22;;;2.28;;
22060;SDS011;11194;48.092;-1.382;2023-04-07T14:12:02;3.03;;;2.20;;
22060;SDS011;11194;48.092;-1.382;2023-04-07T14:14:29;4.40;;;2.33;;
22060;SDS011;11194;48.092;-1.382;2023-04-07T14:16:55;2.88;;;1.92;;
22060;SDS011;11194;48.092;-1.382;2023-04-07T14:19:22;3.08;;;2.03;;
22060;SDS011;11194;48.092;-1.382;2023-04-07T14:21:49;5.75;;;2.05;;
22060;SDS011;11194;48.092;-1.382;2023-04-07T14:24:15;4.35;;;2.00;;
22060;SDS011;11194;48.092;-1.382;2023-04-07T14:26:44;4.88;;;1.90;;
22060;SDS011;11194;48.092;-1.382;2023-04-07T14:29:11;3.30;;;2.13;;
22060;SDS011;11194;48.092;-1.382;2023-04-07T14:31:37;3.45;;;2.15;;
22060;SDS011;11194;48.092;-1.382;2023-04-07T14:34:03;2.22;;;1.75;;
22060;SDS011;11194;48.092;-1.382;2023-04-07T14:36:31;2.90;;;1.85;;
22060;SDS011;11194;48.092;-1.382;2023-04-07T14:38:57;4.07;;;2.22;;
22060;SDS011;11194;48.092;-1.382;2023-04-07T14:41:23;3.17;;;1.70;;
22060;SDS011;11194;48.092;-1.382;2023-04-07T14:43:49;4.38;;;1.80;;
22060;SDS011;11194;48.092;-1.382;2023-04-07T14:46:22;4.35;;;2.03;;
22060;SDS011;11194;48.092;-1.382;2023-04-07T14:48:49;2.00;;;1.50;;
22060;SDS011;11194;48.092;-1.382;2023-04-07T14:51:18;2.25;;;1.23;;
22060;SDS011;11194;48.092;-1.382;2023-04-07T14:53:45;4.38;;;1.75;;
22060;SDS011;11194;48.092;-1.382;2023-04-07T14:56:11;3.75;;;1.83;;
22060;SDS011;11194;48.092;-1.382;2023-04-07T14:58:37;3.42;;;1.67;;
22060;SDS011;11194;48.092;-1.382;2023-04-07T15:01:04;3.63;;;1.83;;
22060;SDS011;11194;48.092;-1.382;2023-04-07T15:03:31;3.95;;;1.92;;
22060;SDS011;11194;48.092;-1.382;2023-04-07T15:05:58;2.60;;;1.65;;
22060;SDS011;11194;48.092;-1.382;2023-04-07T15:08:24;2.85;;;1.50;;
22060;SDS011;11194;48.092;-1.382;2023-04-07T15:10:50;3.80;;;1.75;;
22060;SDS011;11194;48.092;-1.382;2023-04-07T15:13:16;4.40;;;2.67;;
22060;SDS011;11194;48.092;-1.382;2023-04-07T15:15:42;3.30;;;1.52;;
22060;SDS011;11194;48.092;-1.382;2023-04-07T15:18:08;2.60;;;1.67;;
22060;SDS011;11194;48.092;-1.382;2023-04-07T15:20:34;2.22;;;1.50;;
22060;SDS011;11194;48.092;-1.382;2023-04-07T15:23:00;1.98;;;1.52;;
22060;SDS011;11194;48.092;-1.382;2023-04-07T15:25:27;1.67;;;1.10;;
22060;SDS011;11194;48.092;-1.382;2023-04-07T15:27:53;1.42;;;1.23;;
22060;SDS011;11194;48.092;-1.382;2023-04-07T15:30:19;2.38;;;1.60;;
22060;SDS011;11194;48.092;-1.382;2023-04-07T15:32:55;3.55;;;1.73;;
22060;SDS011;11194;48.092;-1.382;2023-04-07T15:35:21;2.95;;;1.73;;
22060;SDS011;11194;48.092;-1.382;2023-04-07T15:37:47;2.90;;;1.95;;
22060;SDS011;11194;48.092;-1.382;2023-04-07T15:40:13;4.05;;;1.67;;
22060;SDS011;11194;48.092;-1.382;2023-04-07T15:42:39;2.63;;;1.50;;
22060;SDS011;11194;48.092;-1.382;2023-04-07T15:45:05;4.32;;;2.20;;
22060;SDS011;11194;48.092;-1.382;2023-04-07T15:47:32;3.28;;;1.38;;
22060;SDS011;11194;48.092;-1.382;2023-04-07T15:49:58;4.18;;;1.65;;
22060;SDS011;11194;48.092;-1.382;2023-04-07T15:52:24;10.23;;;5.10;;
22060;SDS011;11194;48.092;-1.382;2023-04-07T15:54:51;5.82;;;2.30;;
22060;SDS011;11194;48.092;-1.382;2023-04-07T15:57:17;6.70;;;4.03;;
22060;SDS011;11194;48.092;-1.382;2023-04-07T15:59:45;4.50;;;2.38;;
22060;SDS011;11194;48.092;-1.382;2023-04-07T16:02:11;3.65;;;1.80;;
22060;SDS011;11194;48.092;-1.382;2023-04-07T16:04:37;3.95;;;2.00;;
22060;SDS011;11194;48.092;-1.382;2023-04-07T16:07:03;3.58;;;2.13;;
22060;SDS011;11194;48.092;-1.382;2023-04-07T16:09:29;2.58;;;1.80;;
22060;SDS011;11194;48.092;-1.382;2023-04-07T16:11:55;3.70;;;1.52;;
22060;SDS011;11194;48.092;-1.382;2023-04-07T16:14:21;2.00;;;1.63;;
22060;SDS011;11194;48.092;-1.382;2023-04-07T16:16:47;3.00;;;1.90;;
22060;SDS011;11194;48.092;-1.382;2023-04-07T16:19:17;2.58;;;1.92;;
22060;SDS011;11194;48.092;-1.382;2023-04-07T16:21:43;4.30;;;1.90;;
22060;SDS011;11194;48.092;-1.382;2023-04-07T16:24:09;2.88;;;1.98;;
22060;SDS011;11194;48.092;-1.382;2023-04-07T16:26:35;3.92;;;1.80;;
22060;SDS011;11194;48.092;-1.382;2023-04-07T16:29:01;3.53;;;2.03;;
22060;SDS011;11194;48.092;-1.382;2023-04-07T16:31:27;3.55;;;1.73;;
22060;SDS011;11194;48.092;-1.382;2023-04-07T16:33:53;4.65;;;1.92;;
22060;SDS011;11194;48.092;-1.382;2023-04-07T16:36:19;3.78;;;1.92;;
22060;SDS011;11194;48.092;-1.382;2023-04-07T16:38:45;4.97;;;2.20;;
22060;SDS011;11194;48.092;-1.382;2023-04-07T16:41:13;6.15;;;3.30;;
22060;SDS011;11194;48.092;-1.382;2023-04-07T16:43:39;3.70;;;2.17;;
22060;SDS011;11194;48.092;-1.382;2023-04-07T16:46:05;4.70;;;2.13;;
22060;SDS011;11194;48.092;-1.382;2023-04-07T16:48:31;5.47;;;2.75;;
22060;SDS011;11194;48.092;-1.382;2023-04-07T16:50:57;3.75;;;2.25;;
22060;SDS011;11194;48.092;-1.382;2023-04-07T16:53:23;7.13;;;2.80;;
22060;SDS011;11194;48.092;-1.382;2023-04-07T16:55:49;4.25;;;1.67;;
22060;SDS011;11194;48.092;-1.382;2023-04-07T16:58:15;4.00;;;2.10;;
22060;SDS011;11194;48.092;-1.382;2023-04-07T17:00:43;3.28;;;2.00;;
22060;SDS011;11194;48.092;-1.382;2023-04-07T17:03:11;3.65;;;2.40;;
22060;SDS011;11194;48.092;-1.382;2023-04-07T17:05:38;2.00;;;1.55;;
22060;SDS011;11194;48.092;-1.382;2023-04-07T17:08:04;2.58;;;1.58;;
22060;SDS011;11194;48.092;-1.382;2023-04-07T17:10:30;3.15;;;1.60;;
22060;SDS011;11194;48.092;-1.382;2023-04-07T17:12:56;3.95;;;2.28;;
22060;SDS011;11194;48.092;-1.382;2023-04-07T17:15:22;5.38;;;3.30;;
22060;SDS011;11194;48.092;-1.382;2023-04-07T17:17:48;3.58;;;2.40;;
22060;SDS011;11194;48.092;-1.382;2023-04-07T17:20:15;2.95;;;1.65;;
22060;SDS011;11194;48.092;-1.382;2023-04-07T17:22:43;4.05;;;1.85;;